sensor_id;sensor_type;location;lat;lon;timestamp;P1;durP1;ratioP1;P2;durP2;ratioP2
20611;SDS011;10465;42.686;23.364;2023-07-31T00:01:18;3.90;;;3.50;;
20611;SDS011;10465;42.686;23.364;2023-07-31T00:03:43;3.80;;;3.50;;
20611;SDS011;10465;42.686;23.364;2023-07-31T00:06:10;3.78;;;3.45;;
20611;SDS011;10465;42.686;23.364;2023-07-31T00:08:36;3.88;;;3.47;;
20611;SDS011;10465;42.686;23.364;2023-07-31T00:11:01;4.03;;;3.72;;
20611;SDS011;10465;42.686;23.364;2023-07-31T00:13:26;3.50;;;3.17;;
20611;SDS011;10465;42.686;23.364;2023-07-31T00:15:52;4.55;;;3.40;;
20611;SDS011;10465;42.686;23.364;2023-07-31T00:18:17;3.70;;;3.38;;
20611;SDS011;10465;42.686;23.364;2023-07-31T00:20:43;3.63;;;3.30;;
20611;SDS011;10465;42.686;23.364;2023-07-31T00:23:08;3.75;;;3.45;;
20611;SDS011;10465;42.686;23.364;2023-07-31T00:25:34;4.28;;;3.35;;
20611;SDS011;10465;42.686;23.364;2023-07-31T00:27:59;3.67;;;3.38;;
20611;SDS011;10465;42.686;23.364;2023-07-31T00:30:24;4.47;;;3.53;;
20611;SDS011;10465;42.686;23.364;2023-07-31T00:32:51;5.15;;;3.38;;
20611;SDS011;10465;42.686;23.364;2023-07-31T00:35:17;3.58;;;3.28;;
20611;SDS011;10465;42.686;23.364;2023-07-31T00:37:43;4.20;;;3.40;;
20611;SDS011;10465;42.686;23.364;2023-07-31T00:40:08;3.95;;;3.55;;
20611;SDS011;10465;42.686;23.364;2023-07-31T00:42:34;3.95;;;3.63;;
20611;SDS011;10465;42.686;23.364;2023-07-31T00:44:59;4.55;;;4.15;;
20611;SDS011;10465;42.686;23.364;2023-07-31T00:47:25;4.25;;;3.80;;
20611;SDS011;10465;42.686;23.364;2023-07-31T00:49:51;5.45;;;4.20;;
20611;SDS011;10465;42.686;23.364;2023-07-31T00:52:17;4.63;;;4.22;;
20611;SDS011;10465;42.686;23.364;2023-07-31T00:54:44;5.03;;;4.57;;
20611;SDS011;10465;42.686;23.364;2023-07-31T00:57:09;5.13;;;4.40;;
20611;SDS011;10465;42.686;23.364;2023-07-31T00:59:35;5.20;;;4.70;;
20611;SDS011;10465;42.686;23.364;2023-07-31T01:02:01;5.32;;;4.82;;
20611;SDS011;10465;42.686;23.364;2023-07-31T01:04:27;6.60;;;5.20;;
20611;SDS011;10465;42.686;23.364;2023-07-31T01:10:07;9.98;;;6.13;;
20611;SDS011;10465;42.686;23.364;2023-07-31T01:12:50;8.00;;;7.30;;
20611;SDS011;10465;42.686;23.364;2023-07-31T01:15:16;8.57;;;7.70;;
20611;SDS011;10465;42.686;23.364;2023-07-31T01:17:42;9.52;;;8.68;;
20611;SDS011;10465;42.686;23.364;2023-07-31T01:20:15;8.88;;;7.97;;
20611;SDS011;10465;42.686;23.364;2023-07-31T01:22:53;9.38;;;8.48;;
20611;SDS011;10465;42.686;23.364;2023-07-31T01:28:13;11.98;;;10.02;;
20611;SDS011;10465;42.686;23.364;2023-07-31T01:30:44;10.73;;;9.50;;
20611;SDS011;10465;42.686;23.364;2023-07-31T01:33:12;12.23;;;10.90;;
20611;SDS011;10465;42.686;23.364;2023-07-31T01:35:42;14.27;;;12.38;;
20611;SDS011;10465;42.686;23.364;2023-07-31T01:38:09;15.10;;;11.68;;
20611;SDS011;10465;42.686;23.364;2023-07-31T01:40:35;12.73;;;11.52;;
20611;SDS011;10465;42.686;23.364;2023-07-31T01:43:00;13.65;;;12.25;;
20611;SDS011;10465;42.686;23.364;2023-07-31T01:45:26;16.25;;;14.45;;
20611;SDS011;10465;42.686;23.364;2023-07-31T01:47:52;15.35;;;13.75;;
20611;SDS011;10465;42.686;23.364;2023-07-31T01:50:17;17.50;;;15.65;;
20611;SDS011;10465;42.686;23.364;2023-07-31T01:52:43;16.42;;;14.73;;
20611;SDS011;10465;42.686;23.364;2023-07-31T01:55:08;19.67;;;17.58;;
20611;SDS011;10465;42.686;23.364;2023-07-31T01:57:34;19.33;;;17.25;;
20611;SDS011;10465;42.686;23.364;2023-07-31T02:00:01;19.60;;;17.60;;
20611;SDS011;10465;42.686;23.364;2023-07-31T02:02:27;20.08;;;18.02;;
20611;SDS011;10465;42.686;23.364;2023-07-31T02:04:52;20.30;;;18.08;;
20611;SDS011;10465;42.686;23.364;2023-07-31T02:07:18;22.30;;;18.75;;
20611;SDS011;10465;42.686;23.364;2023-07-31T02:09:44;20.33;;;18.20;;
20611;SDS011;10465;42.686;23.364;2023-07-31T02:12:09;21.73;;;18.58;;
20611;SDS011;10465;42.686;23.364;2023-07-31T02:14:35;22.30;;;19.17;;
20611;SDS011;10465;42.686;23.364;2023-07-31T02:17:00;19.42;;;17.33;;
20611;SDS011;10465;42.686;23.364;2023-07-31T02:19:25;20.25;;;16.77;;
20611;SDS011;10465;42.686;23.364;2023-07-31T02:21:51;19.70;;;17.50;;
20611;SDS011;10465;42.686;23.364;2023-07-31T02:24:16;18.70;;;16.80;;
20611;SDS011;10465;42.686;23.364;2023-07-31T02:26:42;19.00;;;16.98;;
20611;SDS011;10465;42.686;23.364;2023-07-31T02:29:08;19.92;;;17.92;;
20611;SDS011;10465;42.686;23.364;2023-07-31T02:31:33;19.00;;;16.65;;
20611;SDS011;10465;42.686;23.364;2023-07-31T02:33:59;19.50;;;17.02;;
20611;SDS011;10465;42.686;23.364;2023-07-31T02:36:24;19.42;;;17.02;;
20611;SDS011;10465;42.686;23.364;2023-07-31T02:38:50;19.85;;;17.48;;
20611;SDS011;10465;42.686;23.364;2023-07-31T02:41:15;20.20;;;17.80;;
20611;SDS011;10465;42.686;23.364;2023-07-31T02:43:41;20.20;;;18.20;;
20611;SDS011;10465;42.686;23.364;2023-07-31T02:46:06;20.48;;;17.80;;
20611;SDS011;10465;42.686;23.364;2023-07-31T02:48:32;20.77;;;18.60;;
20611;SDS011;10465;42.686;23.364;2023-07-31T02:50:57;21.08;;;18.83;;
20611;SDS011;10465;42.686;23.364;2023-07-31T02:53:23;20.38;;;18.27;;
20611;SDS011;10465;42.686;23.364;2023-07-31T02:55:48;21.25;;;18.65;;
20611;SDS011;10465;42.686;23.364;2023-07-31T02:58:14;20.33;;;18.33;;
20611;SDS011;10465;42.686;23.364;2023-07-31T03:00:43;23.00;;;19.15;;
20611;SDS011;10465;42.686;23.364;2023-07-31T03:03:09;19.60;;;17.50;;
20611;SDS011;10465;42.686;23.364;2023-07-31T03:05:35;20.73;;;18.58;;
20611;SDS011;10465;42.686;23.364;2023-07-31T03:08:00;20.20;;;18.05;;
20611;SDS011;10465;42.686;23.364;2023-07-31T03:10:26;23.20;;;18.92;;
20611;SDS011;10465;42.686;23.364;2023-07-31T03:12:52;22.88;;;19.13;;
20611;SDS011;10465;42.686;23.364;2023-07-31T03:15:17;21.60;;;19.30;;
20611;SDS011;10465;42.686;23.364;2023-07-31T03:17:43;21.60;;;19.20;;
20611;SDS011;10465;42.686;23.364;2023-07-31T03:20:08;21.88;;;19.65;;
20611;SDS011;10465;42.686;23.364;2023-07-31T03:22:34;21.15;;;18.83;;
20611;SDS011;10465;42.686;23.364;2023-07-31T03:25:00;21.45;;;18.77;;
20611;SDS011;10465;42.686;23.364;2023-07-31T03:27:26;20.40;;;18.23;;
20611;SDS011;10465;42.686;23.364;2023-07-31T03:29:52;23.58;;;19.55;;
20611;SDS011;10465;42.686;23.364;2023-07-31T03:32:17;21.88;;;19.33;;
20611;SDS011;10465;42.686;23.364;2023-07-31T03:34:42;21.88;;;19.55;;
20611;SDS011;10465;42.686;23.364;2023-07-31T03:37:08;22.38;;;19.90;;
20611;SDS011;10465;42.686;23.364;2023-07-31T03:39:34;22.38;;;19.80;;
20611;SDS011;10465;42.686;23.364;2023-07-31T03:42:00;21.38;;;19.08;;
20611;SDS011;10465;42.686;23.364;2023-07-31T03:44:25;22.17;;;19.88;;
20611;SDS011;10465;42.686;23.364;2023-07-31T03:46:51;21.65;;;19.35;;
20611;SDS011;10465;42.686;23.364;2023-07-31T03:49:16;21.65;;;19.35;;
20611;SDS011;10465;42.686;23.364;2023-07-31T03:51:42;22.20;;;19.77;;
20611;SDS011;10465;42.686;23.364;2023-07-31T03:54:08;22.20;;;19.27;;
20611;SDS011;10465;42.686;23.364;2023-07-31T03:56:33;23.08;;;19.75;;
20611;SDS011;10465;42.686;23.364;2023-07-31T03:58:59;21.95;;;19.30;;
20611;SDS011;10465;42.686;23.364;2023-07-31T04:01:24;22.00;;;18.75;;
20611;SDS011;10465;42.686;23.364;2023-07-31T04:03:50;22.65;;;20.20;;
20611;SDS011;10465;42.686;23.364;2023-07-31T04:06:15;23.83;;;19.70;;
20611;SDS011;10465;42.686;23.364;2023-07-31T04:08:43;23.13;;;20.10;;
20611;SDS011;10465;42.686;23.364;2023-07-31T04:11:10;24.35;;;21.70;;
20611;SDS011;10465;42.686;23.364;2023-07-31T04:13:36;25.33;;;21.00;;
20611;SDS011;10465;42.686;23.364;2023-07-31T04:16:02;22.70;;;20.30;;
20611;SDS011;10465;42.686;23.364;2023-07-31T04:18:27;25.77;;;22.20;;
20611;SDS011;10465;42.686;23.364;2023-07-31T04:20:55;25.20;;;21.38;;
20611;SDS011;10465;42.686;23.364;2023-07-31T04:23:21;26.45;;;21.88;;
20611;SDS011;10465;42.686;23.364;2023-07-31T04:25:47;25.08;;;21.77;;
20611;SDS011;10465;42.686;23.364;2023-07-31T04:28:12;26.27;;;20.65;;
20611;SDS011;10465;42.686;23.364;2023-07-31T04:30:37;25.15;;;21.40;;
20611;SDS011;10465;42.686;23.364;2023-07-31T04:33:03;26.55;;;21.30;;
20611;SDS011;10465;42.686;23.364;2023-07-31T04:35:29;25.05;;;21.75;;
20611;SDS011;10465;42.686;23.364;2023-07-31T04:37:54;26.90;;;21.25;;
20611;SDS011;10465;42.686;23.364;2023-07-31T04:40:20;26.33;;;20.42;;
20611;SDS011;10465;42.686;23.364;2023-07-31T04:42:46;25.65;;;20.92;;
20611;SDS011;10465;42.686;23.364;2023-07-31T04:45:11;24.58;;;21.33;;
20611;SDS011;10465;42.686;23.364;2023-07-31T04:47:37;25.80;;;22.20;;
20611;SDS011;10465;42.686;23.364;2023-07-31T04:50:02;25.75;;;21.13;;
20611;SDS011;10465;42.686;23.364;2023-07-31T04:52:28;25.75;;;20.27;;
20611;SDS011;10465;42.686;23.364;2023-07-31T04:54:53;23.58;;;20.70;;
20611;SDS011;10465;42.686;23.364;2023-07-31T04:57:19;24.35;;;19.33;;
20611;SDS011;10465;42.686;23.364;2023-07-31T04:59:44;24.77;;;19.90;;
20611;SDS011;10465;42.686;23.364;2023-07-31T05:02:11;22.55;;;19.90;;
20611;SDS011;10465;42.686;23.364;2023-07-31T05:04:37;21.45;;;18.38;;
20611;SDS011;10465;42.686;23.364;2023-07-31T05:07:02;22.77;;;20.08;;
20611;SDS011;10465;42.686;23.364;2023-07-31T05:09:28;23.08;;;19.98;;
20611;SDS011;10465;42.686;23.364;2023-07-31T05:11:54;22.65;;;19.60;;
20611;SDS011;10465;42.686;23.364;2023-07-31T05:14:19;21.23;;;18.92;;
20611;SDS011;10465;42.686;23.364;2023-07-31T05:16:45;20.33;;;17.83;;
20611;SDS011;10465;42.686;23.364;2023-07-31T05:19:10;22.08;;;19.80;;
20611;SDS011;10465;42.686;23.364;2023-07-31T05:21:36;21.92;;;18.67;;
20611;SDS011;10465;42.686;23.364;2023-07-31T05:24:01;21.35;;;18.67;;
20611;SDS011;10465;42.686;23.364;2023-07-31T05:26:27;18.38;;;16.45;;
20611;SDS011;10465;42.686;23.364;2023-07-31T05:28:53;19.25;;;17.25;;
20611;SDS011;10465;42.686;23.364;2023-07-31T05:31:18;17.95;;;16.13;;
20611;SDS011;10465;42.686;23.364;2023-07-31T05:33:44;18.83;;;16.83;;
20611;SDS011;10465;42.686;23.364;2023-07-31T05:36:09;18.60;;;16.70;;
20611;SDS011;10465;42.686;23.364;2023-07-31T05:38:34;17.23;;;15.43;;
20611;SDS011;10465;42.686;23.364;2023-07-31T05:41:00;18.83;;;16.38;;
20611;SDS011;10465;42.686;23.364;2023-07-31T05:43:25;16.45;;;14.85;;
20611;SDS011;10465;42.686;23.364;2023-07-31T05:45:51;17.05;;;15.30;;
20611;SDS011;10465;42.686;23.364;2023-07-31T05:48:16;16.38;;;14.77;;
20611;SDS011;10465;42.686;23.364;2023-07-31T05:50:43;16.13;;;13.70;;
20611;SDS011;10465;42.686;23.364;2023-07-31T05:53:09;16.73;;;13.18;;
20611;SDS011;10465;42.686;23.364;2023-07-31T05:55:35;14.68;;;13.10;;
20611;SDS011;10465;42.686;23.364;2023-07-31T05:58:01;13.80;;;12.40;;
20611;SDS011;10465;42.686;23.364;2023-07-31T06:00:26;13.00;;;11.57;;
20611;SDS011;10465;42.686;23.364;2023-07-31T06:02:52;14.63;;;12.55;;
20611;SDS011;10465;42.686;23.364;2023-07-31T06:05:18;12.80;;;10.95;;
20611;SDS011;10465;42.686;23.364;2023-07-31T06:07:43;13.23;;;10.98;;
20611;SDS011;10465;42.686;23.364;2023-07-31T06:10:09;11.93;;;10.57;;
20611;SDS011;10465;42.686;23.364;2023-07-31T06:12:35;11.30;;;10.30;;
20611;SDS011;10465;42.686;23.364;2023-07-31T06:15:01;10.13;;;9.13;;
20611;SDS011;10465;42.686;23.364;2023-07-31T06:17:28;10.48;;;9.48;;
20611;SDS011;10465;42.686;23.364;2023-07-31T06:19:54;10.23;;;9.07;;
20611;SDS011;10465;42.686;23.364;2023-07-31T06:22:21;10.23;;;8.98;;
20611;SDS011;10465;42.686;23.364;2023-07-31T06:24:46;10.73;;;9.05;;
20611;SDS011;10465;42.686;23.364;2023-07-31T06:27:12;9.90;;;8.90;;
20611;SDS011;10465;42.686;23.364;2023-07-31T06:29:37;9.48;;;7.78;;
20611;SDS011;10465;42.686;23.364;2023-07-31T06:32:03;8.05;;;7.25;;
20611;SDS011;10465;42.686;23.364;2023-07-31T06:34:29;8.90;;;8.00;;
20611;SDS011;10465;42.686;23.364;2023-07-31T06:36:55;7.68;;;6.97;;
20611;SDS011;10465;42.686;23.364;2023-07-31T06:39:21;7.45;;;6.75;;
20611;SDS011;10465;42.686;23.364;2023-07-31T06:41:46;8.15;;;6.43;;
20611;SDS011;10465;42.686;23.364;2023-07-31T06:44:12;6.85;;;6.25;;
20611;SDS011;10465;42.686;23.364;2023-07-31T06:46:37;7.13;;;6.43;;
20611;SDS011;10465;42.686;23.364;2023-07-31T06:49:03;6.78;;;5.65;;
20611;SDS011;10465;42.686;23.364;2023-07-31T06:51:28;6.95;;;6.00;;
20611;SDS011;10465;42.686;23.364;2023-07-31T06:53:56;7.50;;;6.55;;
20611;SDS011;10465;42.686;23.364;2023-07-31T06:56:22;7.55;;;5.93;;
20611;SDS011;10465;42.686;23.364;2023-07-31T06:58:47;5.65;;;5.13;;
20611;SDS011;10465;42.686;23.364;2023-07-31T07:01:13;6.22;;;5.57;;
20611;SDS011;10465;42.686;23.364;2023-07-31T07:03:38;6.55;;;5.70;;
20611;SDS011;10465;42.686;23.364;2023-07-31T07:06:03;6.30;;;5.50;;
20611;SDS011;10465;42.686;23.364;2023-07-31T07:08:29;8.73;;;5.70;;
20611;SDS011;10465;42.686;23.364;2023-07-31T07:10:54;7.82;;;5.28;;
20611;SDS011;10465;42.686;23.364;2023-07-31T07:13:20;8.07;;;5.38;;
20611;SDS011;10465;42.686;23.364;2023-07-31T07:15:49;8.05;;;5.82;;
20611;SDS011;10465;42.686;23.364;2023-07-31T07:18:16;8.45;;;5.47;;
20611;SDS011;10465;42.686;23.364;2023-07-31T07:20:51;6.60;;;5.65;;
20611;SDS011;10465;42.686;23.364;2023-07-31T07:23:18;7.32;;;5.72;;
20611;SDS011;10465;42.686;23.364;2023-07-31T07:25:44;6.15;;;4.97;;
20611;SDS011;10465;42.686;23.364;2023-07-31T07:28:11;5.45;;;4.80;;
20611;SDS011;10465;42.686;23.364;2023-07-31T07:30:37;5.85;;;4.95;;
20611;SDS011;10465;42.686;23.364;2023-07-31T07:33:03;5.70;;;5.20;;
20611;SDS011;10465;42.686;23.364;2023-07-31T07:35:28;5.45;;;4.80;;
20611;SDS011;10465;42.686;23.364;2023-07-31T07:37:54;6.32;;;4.57;;
20611;SDS011;10465;42.686;23.364;2023-07-31T07:40:20;7.05;;;4.82;;
20611;SDS011;10465;42.686;23.364;2023-07-31T07:42:46;4.85;;;4.35;;
20611;SDS011;10465;42.686;23.364;2023-07-31T07:45:12;5.32;;;4.82;;
20611;SDS011;10465;42.686;23.364;2023-07-31T07:47:38;7.18;;;4.78;;
20611;SDS011;10465;42.686;23.364;2023-07-31T07:50:06;4.97;;;4.30;;
20611;SDS011;10465;42.686;23.364;2023-07-31T07:52:32;5.03;;;4.47;;
20611;SDS011;10465;42.686;23.364;2023-07-31T07:54:57;5.07;;;4.57;;
20611;SDS011;10465;42.686;23.364;2023-07-31T07:57:23;5.78;;;4.47;;
20611;SDS011;10465;42.686;23.364;2023-07-31T07:59:48;6.32;;;4.43;;
20611;SDS011;10465;42.686;23.364;2023-07-31T08:02:14;4.85;;;4.43;;
20611;SDS011;10465;42.686;23.364;2023-07-31T08:04:39;4.25;;;3.85;;
20611;SDS011;10465;42.686;23.364;2023-07-31T08:07:05;6.28;;;4.28;;
20611;SDS011;10465;42.686;23.364;2023-07-31T08:09:30;6.20;;;4.15;;
20611;SDS011;10465;42.686;23.364;2023-07-31T08:11:56;6.45;;;4.32;;
20611;SDS011;10465;42.686;23.364;2023-07-31T08:14:26;6.50;;;4.45;;
20611;SDS011;10465;42.686;23.364;2023-07-31T08:16:52;4.90;;;4.40;;
20611;SDS011;10465;42.686;23.364;2023-07-31T08:19:17;6.50;;;4.40;;
20611;SDS011;10465;42.686;23.364;2023-07-31T08:21:43;6.55;;;4.13;;
20611;SDS011;10465;42.686;23.364;2023-07-31T08:24:08;5.10;;;4.35;;
20611;SDS011;10465;42.686;23.364;2023-07-31T08:26:34;5.00;;;4.03;;
20611;SDS011;10465;42.686;23.364;2023-07-31T08:28:59;5.43;;;4.00;;
20611;SDS011;10465;42.686;23.364;2023-07-31T08:31:25;4.20;;;3.80;;
20611;SDS011;10465;42.686;23.364;2023-07-31T08:33:51;5.32;;;4.13;;
20611;SDS011;10465;42.686;23.364;2023-07-31T08:36:17;4.65;;;3.70;;
20611;SDS011;10465;42.686;23.364;2023-07-31T08:38:42;5.38;;;4.18;;
20611;SDS011;10465;42.686;23.364;2023-07-31T08:41:08;4.90;;;4.10;;
20611;SDS011;10465;42.686;23.364;2023-07-31T08:43:34;7.57;;;4.25;;
20611;SDS011;10465;42.686;23.364;2023-07-31T08:46:01;5.28;;;4.03;;
20611;SDS011;10465;42.686;23.364;2023-07-31T08:48:27;4.70;;;4.20;;
20611;SDS011;10465;42.686;23.364;2023-07-31T08:50:54;4.55;;;3.72;;
20611;SDS011;10465;42.686;23.364;2023-07-31T08:53:19;5.28;;;3.92;;
20611;SDS011;10465;42.686;23.364;2023-07-31T08:55:45;5.20;;;3.85;;
20611;SDS011;10465;42.686;23.364;2023-07-31T08:58:12;9.85;;;4.32;;
20611;SDS011;10465;42.686;23.364;2023-07-31T09:00:40;7.03;;;3.90;;
20611;SDS011;10465;42.686;23.364;2023-07-31T09:03:09;4.97;;;3.78;;
20611;SDS011;10465;42.686;23.364;2023-07-31T09:05:39;4.13;;;3.72;;
20611;SDS011;10465;42.686;23.364;2023-07-31T09:08:11;4.57;;;3.88;;
20611;SDS011;10465;42.686;23.364;2023-07-31T09:10:42;4.40;;;4.00;;
20611;SDS011;10465;42.686;23.364;2023-07-31T09:13:08;7.75;;;4.35;;
20611;SDS011;10465;42.686;23.364;2023-07-31T09:15:35;4.07;;;3.67;;
20611;SDS011;10465;42.686;23.364;2023-07-31T09:18:02;5.68;;;4.05;;
20611;SDS011;10465;42.686;23.364;2023-07-31T09:20:28;4.45;;;3.95;;
20611;SDS011;10465;42.686;23.364;2023-07-31T09:22:54;4.25;;;3.55;;
20611;SDS011;10465;42.686;23.364;2023-07-31T09:25:27;4.63;;;3.22;;
20611;SDS011;10465;42.686;23.364;2023-07-31T09:28:05;6.22;;;3.67;;
20611;SDS011;10465;42.686;23.364;2023-07-31T09:33:12;5.75;;;3.67;;
20611;SDS011;10465;42.686;23.364;2023-07-31T09:35:38;4.80;;;3.55;;
20611;SDS011;10465;42.686;23.364;2023-07-31T09:40:39;6.00;;;4.03;;
20611;SDS011;10465;42.686;23.364;2023-07-31T09:43:12;4.80;;;3.78;;
20611;SDS011;10465;42.686;23.364;2023-07-31T09:45:42;3.85;;;3.47;;
20611;SDS011;10465;42.686;23.364;2023-07-31T09:48:09;5.15;;;3.70;;
20611;SDS011;10465;42.686;23.364;2023-07-31T09:50:37;5.03;;;3.65;;
20611;SDS011;10465;42.686;23.364;2023-07-31T09:53:04;4.22;;;3.83;;
20611;SDS011;10465;42.686;23.364;2023-07-31T09:55:33;3.80;;;3.40;;
20611;SDS011;10465;42.686;23.364;2023-07-31T09:58:01;4.68;;;3.53;;
20611;SDS011;10465;42.686;23.364;2023-07-31T10:00:32;5.80;;;3.47;;
20611;SDS011;10465;42.686;23.364;2023-07-31T10:02:59;3.28;;;2.83;;
20611;SDS011;10465;42.686;23.364;2023-07-31T10:05:48;3.95;;;2.95;;
20611;SDS011;10465;42.686;23.364;2023-07-31T10:08:15;2.80;;;2.60;;
20611;SDS011;10465;42.686;23.364;2023-07-31T10:10:43;3.25;;;2.95;;
20611;SDS011;10465;42.686;23.364;2023-07-31T10:13:10;3.05;;;2.70;;
20611;SDS011;10465;42.686;23.364;2023-07-31T10:15:38;3.22;;;2.90;;
20611;SDS011;10465;42.686;23.364;2023-07-31T10:18:06;5.45;;;2.90;;
20611;SDS011;10465;42.686;23.364;2023-07-31T10:20:32;3.13;;;2.72;;
20611;SDS011;10465;42.686;23.364;2023-07-31T10:22:57;4.03;;;2.72;;
20611;SDS011;10465;42.686;23.364;2023-07-31T10:25:24;3.80;;;2.85;;
20611;SDS011;10465;42.686;23.364;2023-07-31T10:27:52;4.53;;;2.60;;
20611;SDS011;10465;42.686;23.364;2023-07-31T10:30:20;3.92;;;2.60;;
20611;SDS011;10465;42.686;23.364;2023-07-31T10:32:48;3.17;;;2.53;;
20611;SDS011;10465;42.686;23.364;2023-07-31T10:35:15;3.63;;;2.53;;
20611;SDS011;10465;42.686;23.364;2023-07-31T10:37:42;3.80;;;3.13;;
20611;SDS011;10465;42.686;23.364;2023-07-31T10:40:12;7.43;;;2.80;;
20611;SDS011;10465;42.686;23.364;2023-07-31T10:42:48;3.78;;;2.58;;
20611;SDS011;10465;42.686;23.364;2023-07-31T10:45:34;4.43;;;2.70;;
20611;SDS011;10465;42.686;23.364;2023-07-31T10:50:29;4.22;;;2.88;;
20611;SDS011;10465;42.686;23.364;2023-07-31T10:52:57;2.55;;;2.30;;
20611;SDS011;10465;42.686;23.364;2023-07-31T10:57:50;4.70;;;2.33;;
20611;SDS011;10465;42.686;23.364;2023-07-31T11:00:19;2.85;;;2.35;;
20611;SDS011;10465;42.686;23.364;2023-07-31T11:03:06;2.85;;;2.13;;
20611;SDS011;10465;42.686;23.364;2023-07-31T11:10:47;2.65;;;2.40;;
20611;SDS011;10465;42.686;23.364;2023-07-31T11:13:15;3.28;;;2.20;;
20611;SDS011;10465;42.686;23.364;2023-07-31T11:15:41;2.20;;;2.00;;
20611;SDS011;10465;42.686;23.364;2023-07-31T11:18:06;3.47;;;2.10;;
20611;SDS011;10465;42.686;23.364;2023-07-31T11:20:33;3.92;;;2.38;;
20611;SDS011;10465;42.686;23.364;2023-07-31T11:23:03;2.50;;;2.30;;
20611;SDS011;10465;42.686;23.364;2023-07-31T11:25:31;3.15;;;2.30;;
20611;SDS011;10465;42.686;23.364;2023-07-31T11:28:07;3.25;;;2.47;;
20611;SDS011;10465;42.686;23.364;2023-07-31T11:30:37;2.45;;;2.05;;
20611;SDS011;10465;42.686;23.364;2023-07-31T11:33:04;2.53;;;2.25;;
20611;SDS011;10465;42.686;23.364;2023-07-31T11:35:31;3.10;;;2.15;;
20611;SDS011;10465;42.686;23.364;2023-07-31T11:38:01;3.13;;;2.05;;
20611;SDS011;10465;42.686;23.364;2023-07-31T11:40:27;3.92;;;1.95;;
20611;SDS011;10465;42.686;23.364;2023-07-31T11:42:57;3.60;;;2.30;;
20611;SDS011;10465;42.686;23.364;2023-07-31T11:45:27;3.15;;;2.45;;
20611;SDS011;10465;42.686;23.364;2023-07-31T11:47:56;2.90;;;2.67;;
20611;SDS011;10465;42.686;23.364;2023-07-31T11:50:22;3.33;;;2.70;;
20611;SDS011;10465;42.686;23.364;2023-07-31T11:52:57;3.70;;;3.33;;
20611;SDS011;10465;42.686;23.364;2023-07-31T11:55:25;5.18;;;3.40;;
20611;SDS011;10465;42.686;23.364;2023-07-31T11:57:51;7.25;;;3.22;;
20611;SDS011;10465;42.686;23.364;2023-07-31T12:00:19;3.67;;;2.72;;
20611;SDS011;10465;42.686;23.364;2023-07-31T12:02:45;3.35;;;2.72;;
20611;SDS011;10465;42.686;23.364;2023-07-31T12:05:14;3.75;;;3.25;;
20611;SDS011;10465;42.686;23.364;2023-07-31T12:07:46;3.03;;;2.72;;
20611;SDS011;10465;42.686;23.364;2023-07-31T12:12:56;4.47;;;3.13;;
20611;SDS011;10465;42.686;23.364;2023-07-31T12:15:28;3.70;;;3.35;;
20611;SDS011;10465;42.686;23.364;2023-07-31T12:18:11;3.40;;;3.10;;
20611;SDS011;10465;42.686;23.364;2023-07-31T12:20:48;4.32;;;3.40;;
20611;SDS011;10465;42.686;23.364;2023-07-31T12:23:19;4.13;;;3.70;;
20611;SDS011;10465;42.686;23.364;2023-07-31T12:28:35;5.65;;;4.10;;
20611;SDS011;10465;42.686;23.364;2023-07-31T12:31:03;7.22;;;4.85;;
20611;SDS011;10465;42.686;23.364;2023-07-31T12:33:36;5.28;;;4.78;;
20611;SDS011;10465;42.686;23.364;2023-07-31T12:36:04;5.13;;;4.63;;
20611;SDS011;10465;42.686;23.364;2023-07-31T12:38:32;5.60;;;4.82;;
20611;SDS011;10465;42.686;23.364;2023-07-31T12:40:58;5.45;;;4.95;;
20611;SDS011;10465;42.686;23.364;2023-07-31T12:43:24;7.03;;;5.40;;
20611;SDS011;10465;42.686;23.364;2023-07-31T12:45:49;6.90;;;5.38;;
20611;SDS011;10465;42.686;23.364;2023-07-31T12:48:15;5.35;;;4.80;;
20611;SDS011;10465;42.686;23.364;2023-07-31T12:50:40;5.20;;;4.70;;
20611;SDS011;10465;42.686;23.364;2023-07-31T12:53:06;6.10;;;5.30;;
20611;SDS011;10465;42.686;23.364;2023-07-31T12:55:32;6.70;;;5.72;;
20611;SDS011;10465;42.686;23.364;2023-07-31T12:57:59;6.70;;;5.90;;
20611;SDS011;10465;42.686;23.364;2023-07-31T13:00:25;6.45;;;5.85;;
20611;SDS011;10465;42.686;23.364;2023-07-31T13:02:51;6.07;;;5.53;;
20611;SDS011;10465;42.686;23.364;2023-07-31T13:05:16;6.32;;;5.72;;
20611;SDS011;10465;42.686;23.364;2023-07-31T13:07:43;9.38;;;6.20;;
20611;SDS011;10465;42.686;23.364;2023-07-31T13:10:08;6.68;;;6.07;;
20611;SDS011;10465;42.686;23.364;2023-07-31T13:12:34;7.22;;;6.53;;
20611;SDS011;10465;42.686;23.364;2023-07-31T13:14:59;8.05;;;7.35;;
20611;SDS011;10465;42.686;23.364;2023-07-31T13:17:25;7.07;;;6.45;;
20611;SDS011;10465;42.686;23.364;2023-07-31T13:19:51;8.05;;;6.40;;
20611;SDS011;10465;42.686;23.364;2023-07-31T13:22:17;6.72;;;6.07;;
20611;SDS011;10465;42.686;23.364;2023-07-31T13:24:43;6.60;;;5.90;;
20611;SDS011;10465;42.686;23.364;2023-07-31T13:27:08;7.70;;;5.65;;
20611;SDS011;10465;42.686;23.364;2023-07-31T13:29:34;6.57;;;5.65;;
20611;SDS011;10465;42.686;23.364;2023-07-31T13:31:59;10.15;;;5.43;;
20611;SDS011;10465;42.686;23.364;2023-07-31T13:34:25;7.95;;;5.40;;
20611;SDS011;10465;42.686;23.364;2023-07-31T13:36:50;6.35;;;5.72;;
20611;SDS011;10465;42.686;23.364;2023-07-31T13:39:15;6.38;;;5.05;;
20611;SDS011;10465;42.686;23.364;2023-07-31T13:41:41;5.05;;;4.65;;
20611;SDS011;10465;42.686;23.364;2023-07-31T13:44:06;6.05;;;5.40;;
20611;SDS011;10465;42.686;23.364;2023-07-31T13:46:32;5.95;;;5.35;;
20611;SDS011;10465;42.686;23.364;2023-07-31T13:48:58;5.68;;;5.18;;
20611;SDS011;10465;42.686;23.364;2023-07-31T13:51:24;5.82;;;5.32;;
20611;SDS011;10465;42.686;23.364;2023-07-31T13:53:50;5.70;;;5.20;;
20611;SDS011;10465;42.686;23.364;2023-07-31T13:56:16;5.30;;;4.80;;
20611;SDS011;10465;42.686;23.364;2023-07-31T13:58:41;5.55;;;5.05;;
20611;SDS011;10465;42.686;23.364;2023-07-31T14:01:07;6.10;;;4.32;;
20611;SDS011;10465;42.686;23.364;2023-07-31T14:03:33;5.13;;;4.63;;
20611;SDS011;10465;42.686;23.364;2023-07-31T14:05:58;5.50;;;5.00;;
20611;SDS011;10465;42.686;23.364;2023-07-31T14:08:24;5.30;;;4.80;;
20611;SDS011;10465;42.686;23.364;2023-07-31T14:10:49;4.60;;;4.20;;
20611;SDS011;10465;42.686;23.364;2023-07-31T14:13:14;5.05;;;4.55;;
20611;SDS011;10465;42.686;23.364;2023-07-31T14:15:43;6.63;;;5.00;;
20611;SDS011;10465;42.686;23.364;2023-07-31T14:18:09;5.78;;;4.80;;
20611;SDS011;10465;42.686;23.364;2023-07-31T14:20:34;5.32;;;4.82;;
20611;SDS011;10465;42.686;23.364;2023-07-31T14:23:00;5.70;;;5.20;;
20611;SDS011;10465;42.686;23.364;2023-07-31T14:25:27;5.88;;;5.28;;
20611;SDS011;10465;42.686;23.364;2023-07-31T14:27:52;5.65;;;5.05;;
20611;SDS011;10465;42.686;23.364;2023-07-31T14:30:17;4.80;;;4.40;;
20611;SDS011;10465;42.686;23.364;2023-07-31T14:32:43;6.72;;;4.95;;
20611;SDS011;10465;42.686;23.364;2023-07-31T14:35:09;6.57;;;4.70;;
20611;SDS011;10465;42.686;23.364;2023-07-31T14:37:41;6.68;;;5.07;;
20611;SDS011;10465;42.686;23.364;2023-07-31T14:40:08;5.53;;;4.57;;
20611;SDS011;10465;42.686;23.364;2023-07-31T14:42:35;5.97;;;4.40;;
20611;SDS011;10465;42.686;23.364;2023-07-31T14:45:01;5.25;;;4.63;;
20611;SDS011;10465;42.686;23.364;2023-07-31T14:47:27;5.70;;;4.97;;
20611;SDS011;10465;42.686;23.364;2023-07-31T14:49:53;5.10;;;4.60;;